Cassadaga, Florida
Current Conditions -  °F | °C
As of 5:15 PM on Monday 20 Oct 2014 (Local Time) from KDED Reporting Station
Clear Clear  
Wind Chill: 79°   Ceiling: Unl
Heat Index: 81°   Visibility: 10mi
Dew Point: 66°   Wind: 10mph
Humidity: 65%   Direction: 80°E
Pressure: 29.98"   Gusts: NA
Location:  28.97°N, 81.24°W
Report Text: KDED 202115Z AUTO 08009KT 10SM CLR 26/19 A2998 RMK AO1
Loading
Personal Weather Stations






























Interactive Weather Map
Tropical Storm Tracking
New forecast layout! Learn more

10-Day Weather Forecast

Advertisements
Track Severe Weather on mobile